Time;durP1;ratioP1;P1;durP2;ratioP2;P2;SDS_P1;SDS_P2;PMS_P1;PMS_P2;Temp;Humidity;BMP_temperature;BMP_pressure;BME280_temperature;BME280_humidity;BME280_pressure;Samples;Min_cycle;Max_cycle;Signal;HPM_P1;HPM_P2
2022/06/29 00:02:20;;;;;;;15.90;7.43;;;;;;;;;;5024007;28;20088;-74
2022/06/29 00:04:46;;;;;;;16.50;7.93;;;;;;;;;;5026962;28;20107;-73
2022/06/29 00:07:12;;;;;;;16.85;8.60;;;;;;;;;;5024739;28;20052;-73
2022/06/29 00:09:38;;;;;;;14.23;7.60;;;;;;;;;;5028275;28;20045;-73
2022/06/29 00:12:04;;;;;;;14.40;7.50;;;;;;;;;;5025145;28;20037;-73
2022/06/29 00:14:30;;;;;;;;;;;;;;;;;;5027006;28;20061;-73
2022/06/29 00:16:56;;;;;;;17.75;7.90;;;;;;;;;;5025943;28;19925;-73
2022/06/29 00:19:22;;;;;;;16.17;8.00;;;;;;;;;;5026839;28;20122;-74
2022/06/29 00:21:48;;;;;;;15.75;7.88;;;;;;;;;;5026167;28;20122;-73
2022/06/29 00:24:15;;;;;;;16.33;7.72;;;;;;;;;;5027555;28;20139;-73
2022/06/29 00:26:41;;;;;;;15.32;8.25;;;;;;;;;;5024593;28;20048;-73
2022/06/29 00:29:07;;;;;;;18.15;8.50;;;;;;;;;;5026814;28;20073;-73
2022/06/29 00:31:33;;;;;;;16.23;7.72;;;;;;;;;;5026611;28;20046;-73
2022/06/29 00:33:59;;;;;;;15.30;7.75;;;;;;;;;;5026509;28;20073;-73
2022/06/29 00:36:25;;;;;;;15.23;8.40;;;;;;;;;;5025195;28;20180;-73
2022/06/29 00:38:51;;;;;;;14.48;8.18;;;;;;;;;;5024626;28;20049;-73
2022/06/29 00:41:18;;;;;;;;;;;;;;;;;;5028220;28;20045;-72
2022/06/29 00:43:44;;;;;;;16.73;7.55;;;;;;;;;;5024453;28;20333;-72
2022/06/29 00:46:10;;;;;;;;;;;;;;;;;;5026664;28;20235;-72
2022/06/29 00:48:36;;;;;;;20.75;8.45;;;;;;;;;;5025985;28;19924;-75
2022/06/29 00:51:03;;;;;;;17.77;8.18;;;;;;;;;;5026402;28;20130;-73
2022/06/29 00:53:32;;;;;;;15.82;8.23;;;;;;;;;;5026903;28;20111;-73
2022/06/29 00:56:00;;;;;;;15.40;8.52;;;;;;;;;;5026113;28;20048;-75
2022/06/29 00:58:28;;;;;;;13.88;7.70;;;;;;;;;;5008825;28;20474;-73
2022/06/29 01:00:54;;;;;;;17.13;8.23;;;;;;;;;;5024972;28;20056;-73
2022/06/29 01:03:20;;;;;;;15.43;8.50;;;;;;;;;;5026258;28;20065;-72
2022/06/29 01:05:47;;;;;;;13.15;8.07;;;;;;;;;;5025198;28;20562;-74
2022/06/29 01:08:13;;;;;;;14.07;8.63;;;;;;;;;;5025954;28;20049;-73
2022/06/29 01:10:39;;;;;;;;;;;;;;;;;;5025955;28;20045;-73
2022/06/29 01:13:05;;;;;;;17.00;8.68;;;;;;;;;;5038301;28;19921;-73
2022/06/29 01:15:31;;;;;;;14.77;8.23;;;;;;;;;;5027343;28;20064;-73
2022/06/29 01:17:57;;;;;;;17.52;8.00;;;;;;;;;;5023338;28;20423;-72
2022/06/29 01:20:24;;;;;;;15.45;8.88;;;;;;;;;;5025576;28;20460;-73
2022/06/29 01:22:52;;;;;;;15.95;8.02;;;;;;;;;;5024752;28;20129;-73
2022/06/29 01:25:18;;;;;;;14.52;7.85;;;;;;;;;;5026827;28;20148;-73
2022/06/29 01:27:44;;;;;;;;;;;;;;;;;;5024313;28;20045;-72
2022/06/29 01:30:10;;;;;;;13.27;9.15;;;;;;;;;;5026681;28;20262;-73
2022/06/29 01:32:38;;;;;;;;;;;;;;;;;;5028200;28;20218;-74
2022/06/29 01:35:06;;;;;;;16.55;8.82;;;;;;;;;;5024030;28;20246;-74
2022/06/29 01:37:32;;;;;;;17.63;9.02;;;;;;;;;;5023300;28;20397;-75
2022/06/29 01:39:58;;;;;;;15.90;8.77;;;;;;;;;;5022240;28;20057;-73
2022/06/29 01:42:24;;;;;;;14.88;8.93;;;;;;;;;;5027303;28;20034;-73
2022/06/29 01:44:50;;;;;;;15.60;8.68;;;;;;;;;;5028513;28;20049;-73
2022/06/29 01:47:17;;;;;;;17.63;8.27;;;;;;;;;;5031229;28;20458;-72
2022/06/29 01:49:43;;;;;;;16.50;9.18;;;;;;;;;;5030493;28;20054;-73
2022/06/29 01:52:09;;;;;;;17.10;8.93;;;;;;;;;;5029813;28;20038;-73
2022/06/29 01:54:35;;;;;;;15.60;9.07;;;;;;;;;;5028193;28;20046;-73
2022/06/29 01:57:01;;;;;;;14.10;8.63;;;;;;;;;;5030671;28;20045;-73
2022/06/29 01:59:27;;;;;;;;;;;;;;;;;;5029367;28;20045;-74
2022/06/29 02:01:53;;;;;;;17.13;9.95;;;;;;;;;;5030836;28;19990;-73
2022/06/29 02:04:19;;;;;;;17.02;9.40;;;;;;;;;;5028300;28;20438;-73
2022/06/29 02:06:45;;;;;;;16.73;8.77;;;;;;;;;;5031129;28;20227;-72
2022/06/29 02:09:12;;;;;;;15.35;9.38;;;;;;;;;;5028969;28;20044;-73
2022/06/29 02:11:38;;;;;;;;;;;;;;;;;;5030013;28;20119;-74
2022/06/29 02:14:04;;;;;;;16.13;9.10;;;;;;;;;;5027500;28;19921;-74
2022/06/29 02:16:30;;;;;;;17.02;8.60;;;;;;;;;;5031050;28;20053;-74
2022/06/29 02:18:56;;;;;;;16.83;9.05;;;;;;;;;;5029665;28;20405;-74
2022/06/29 02:21:23;;;;;;;15.95;9.30;;;;;;;;;;5029264;28;20142;-74
2022/06/29 02:23:49;;;;;;;15.93;9.38;;;;;;;;;;5027631;28;20053;-74
2022/06/29 02:26:15;;;;;;;17.55;8.98;;;;;;;;;;5030187;28;20088;-75
2022/06/29 02:28:41;;;;;;;;;;;;;;;;;;5030412;28;20115;-76
2022/06/29 02:36:37;;;;;;;13.95;9.00;;;;;;;;;;5029382;28;20130;-72
2022/06/29 02:39:03;;;;;;;13.93;8.52;;;;;;;;;;5026668;28;20496;-73
2022/06/29 02:41:29;;;;;;;19.52;9.80;;;;;;;;;;5028696;28;20051;-73
2022/06/29 02:43:55;;;;;;;17.52;8.68;;;;;;;;;;5029392;28;20072;-72
2022/06/29 02:46:21;;;;;;;19.70;9.43;;;;;;;;;;5029001;28;20058;-74
2022/06/29 02:48:47;;;;;;;15.13;9.23;;;;;;;;;;5030352;28;20488;-74
2022/06/29 02:51:13;;;;;;;17.85;8.90;;;;;;;;;;5025650;28;20107;-74
2022/06/29 02:53:40;;;;;;;18.85;9.20;;;;;;;;;;5028712;28;20064;-74
2022/06/29 02:56:06;;;;;;;18.20;8.60;;;;;;;;;;5027067;28;20464;-74
2022/06/29 02:58:33;;;;;;;14.65;8.70;;;;;;;;;;5028650;28;20433;-75
2022/06/29 03:00:59;;;;;;;15.27;8.32;;;;;;;;;;5027287;28;20080;-74
2022/06/29 03:03:25;;;;;;;14.60;7.93;;;;;;;;;;5027627;28;20045;-74
2022/06/29 03:05:51;;;;;;;15.45;8.27;;;;;;;;;;5027538;28;20616;-74
2022/06/29 03:08:17;;;;;;;14.15;8.68;;;;;;;;;;5028440;28;20123;-73
2022/06/29 03:10:44;;;;;;;20.17;9.05;;;;;;;;;;5026603;28;20063;-74
2022/06/29 03:13:10;;;;;;;13.60;8.48;;;;;;;;;;5028584;28;20056;-78
2022/06/29 03:15:43;;;;;;;13.75;9.07;;;;;;;;;;5026463;28;20072;-74
2022/06/29 03:18:09;;;;;;;15.25;9.15;;;;;;;;;;5028157;28;20049;-73
2022/06/29 03:20:35;;;;;;;15.30;8.57;;;;;;;;;;5023641;28;20049;-73
2022/06/29 03:23:02;;;;;;;12.95;8.75;;;;;;;;;;5027919;28;20049;-73
2022/06/29 03:25:28;;;;;;;16.15;9.10;;;;;;;;;;5027184;28;20133;-73
2022/06/29 03:27:54;;;;;;;16.80;8.93;;;;;;;;;;5027989;28;20104;-73
2022/06/29 03:30:20;;;;;;;14.60;9.18;;;;;;;;;;5025075;28;20076;-74
2022/06/29 03:32:46;;;;;;;16.98;10.07;;;;;;;;;;5026897;28;20045;-76
2022/06/29 03:35:12;;;;;;;14.30;9.40;;;;;;;;;;5025328;28;20154;-73
2022/06/29 03:37:38;;;;;;;14.52;9.50;;;;;;;;;;5027419;28;20053;-73
2022/06/29 03:40:05;;;;;;;16.65;9.40;;;;;;;;;;5025438;28;20446;-74
2022/06/29 03:42:31;;;;;;;15.40;9.60;;;;;;;;;;5025265;28;20041;-73
2022/06/29 03:44:57;;;;;;;18.42;9.25;;;;;;;;;;5024968;28;20077;-73
2022/06/29 03:47:24;;;;;;;14.73;9.10;;;;;;;;;;5026646;28;20408;-73
2022/06/29 03:49:51;;;;;;;14.55;8.50;;;;;;;;;;5026680;28;20042;-72
2022/06/29 03:52:17;;;;;;;17.67;10.05;;;;;;;;;;5024665;28;20049;-73
2022/06/29 03:54:43;;;;;;;14.70;9.43;;;;;;;;;;5026022;28;20057;-72
2022/06/29 03:57:09;;;;;;;15.43;9.93;;;;;;;;;;5025884;28;20056;-73
2022/06/29 03:59:35;;;;;;;15.05;10.13;;;;;;;;;;5025720;28;20041;-73
2022/06/29 04:02:01;;;;;;;14.57;9.98;;;;;;;;;;5025078;28;20076;-74
2022/06/29 04:04:27;;;;;;;14.60;8.82;;;;;;;;;;5025243;28;20041;-73
2022/06/29 04:06:53;;;;;;;15.35;9.70;;;;;;;;;;5025892;28;20060;-73
2022/06/29 04:09:19;;;;;;;17.65;10.13;;;;;;;;;;5026755;28;20049;-73
2022/06/29 04:11:48;;;;;;;18.27;10.43;;;;;;;;;;5024425;28;20073;-74
2022/06/29 04:14:14;;;;;;;16.13;10.30;;;;;;;;;;5026591;28;20064;-74
2022/06/29 04:16:41;;;;;;;15.25;10.23;;;;;;;;;;5025858;28;20396;-73
2022/06/29 04:19:07;;;;;;;;;;;;;;;;;;5026368;28;20049;-73
2022/06/29 04:21:33;;;;;;;21.88;10.43;;;;;;;;;;5022520;28;20011;-74
2022/06/29 04:23:59;;;;;;;14.98;10.23;;;;;;;;;;5023776;28;20053;-74
2022/06/29 04:26:25;;;;;;;18.55;10.63;;;;;;;;;;5023633;28;20045;-74
2022/06/29 04:28:51;;;;;;;17.83;10.75;;;;;;;;;;5025451;28;20394;-74
2022/06/29 04:31:17;;;;;;;17.98;10.57;;;;;;;;;;5024208;28;20045;-73
2022/06/29 04:33:43;;;;;;;16.33;9.88;;;;;;;;;;5024565;28;20054;-74
2022/06/29 04:36:09;;;;;;;18.02;10.30;;;;;;;;;;5026042;28;20056;-74
2022/06/29 04:38:35;;;;;;;16.05;10.20;;;;;;;;;;5024526;28;20064;-73
2022/06/29 04:41:01;;;;;;;16.25;10.30;;;;;;;;;;5024624;28;20049;-76
2022/06/29 04:43:29;;;;;;;16.75;10.63;;;;;;;;;;5025127;28;20048;-77
2022/06/29 04:48:40;;;;;;;15.32;10.18;;;;;;;;;;5025453;28;20049;-75
2022/06/29 04:51:06;;;;;;;16.08;10.27;;;;;;;;;;5024310;28;20422;-78
2022/06/29 04:53:32;;;;;;;18.30;10.02;;;;;;;;;;5025344;28;20045;-75
2022/06/29 04:55:59;;;;;;;16.80;9.68;;;;;;;;;;5022895;28;20148;-73
2022/06/29 04:58:25;;;;;;;16.63;10.27;;;;;;;;;;5024435;28;20164;-74
2022/06/29 05:00:51;;;;;;;15.43;10.52;;;;;;;;;;5026545;28;20124;-78
2022/06/29 05:03:17;;;;;;;19.65;10.23;;;;;;;;;;5024805;28;20041;-75
2022/06/29 05:05:43;;;;;;;17.52;10.15;;;;;;;;;;5026156;28;20132;-75
2022/06/29 05:08:09;;;;;;;;;;;;;;;;;;5024412;28;20121;-81
2022/06/29 05:10:35;;;;;;;18.15;10.75;;;;;;;;;;5022225;28;19993;-77
2022/06/29 05:13:01;;;;;;;18.92;10.52;;;;;;;;;;5025500;28;20060;-77
2022/06/29 05:15:27;;;;;;;;;;;;;;;;;;5025210;28;20057;-77
2022/06/29 05:17:53;;;;;;;17.75;10.45;;;;;;;;;;5026737;28;19976;-81
2022/06/29 05:20:21;;;;;;;15.70;10.35;;;;;;;;;;5028998;28;20049;-78
2022/06/29 05:22:48;;;;;;;15.48;10.00;;;;;;;;;;5028533;28;20057;-76
2022/06/29 05:25:14;;;;;;;18.60;10.52;;;;;;;;;;5027853;28;20115;-76
2022/06/29 05:27:40;;;;;;;15.70;9.95;;;;;;;;;;5025534;28;20785;-80
2022/06/29 05:30:06;;;;;;;15.35;10.30;;;;;;;;;;5029562;28;20470;-75
2022/06/29 05:32:32;;;;;;;17.02;9.40;;;;;;;;;;5026788;28;20055;-79
2022/06/29 05:34:58;;;;;;;16.65;10.05;;;;;;;;;;5027836;28;20461;-78
2022/06/29 05:37:25;;;;;;;16.42;10.70;;;;;;;;;;5030783;28;20122;-79
2022/06/29 05:39:51;;;;;;;17.95;10.45;;;;;;;;;;5030107;28;20056;-77
2022/06/29 05:42:17;;;;;;;16.33;9.35;;;;;;;;;;5027384;28;20038;-75
2022/06/29 05:44:43;;;;;;;17.85;9.43;;;;;;;;;;5029490;28;20126;-79
2022/06/29 05:47:09;;;;;;;13.57;9.10;;;;;;;;;;5025455;28;20489;-77
2022/06/29 05:49:35;;;;;;;;;;;;;;;;;;5023752;28;20050;-77
2022/06/29 05:52:01;;;;;;;18.58;9.88;;;;;;;;;;5023606;28;19925;-71
2022/06/29 05:54:27;;;;;;;17.95;9.15;;;;;;;;;;5022898;28;20112;-71
2022/06/29 05:56:53;;;;;;;21.35;8.70;;;;;;;;;;5025900;28;20045;-70
2022/06/29 05:59:19;;;;;;;16.15;8.95;;;;;;;;;;5028664;28;20120;-72
2022/06/29 06:01:45;;;;;;;17.42;9.25;;;;;;;;;;5027181;28;20061;-71
2022/06/29 06:04:11;;;;;;;15.45;8.55;;;;;;;;;;5024316;28;20221;-72
2022/06/29 06:06:37;;;;;;;16.95;9.20;;;;;;;;;;5027229;28;20061;-74
2022/06/29 06:09:04;;;;;;;15.98;8.57;;;;;;;;;;5027011;28;20413;-72
2022/06/29 06:11:30;;;;;;;17.27;8.80;;;;;;;;;;5026159;28;20045;-71
2022/06/29 06:13:56;;;;;;;;;;;;;;;;;;5027647;28;20046;-72
2022/06/29 06:16:22;;;;;;;21.00;8.95;;;;;;;;;;5025706;28;19925;-73
2022/06/29 06:18:48;;;;;;;15.05;8.02;;;;;;;;;;5026501;28;20129;-87
2022/06/29 06:21:15;;;;;;;19.95;8.15;;;;;;;;;;5025471;28;20077;-72
2022/06/29 06:23:41;;;;;;;21.95;8.13;;;;;;;;;;5020332;28;20168;-77
2022/06/29 06:26:07;;;;;;;19.98;7.75;;;;;;;;;;5026935;28;20045;-75
2022/06/29 06:28:33;;;;;;;20.38;7.78;;;;;;;;;;5026068;28;20053;-74
2022/06/29 06:30:59;;;;;;;16.35;7.60;;;;;;;;;;5029432;28;20037;-76
2022/06/29 06:33:25;;;;;;;19.25;7.45;;;;;;;;;;5026020;28;20056;-77
2022/06/29 06:35:51;;;;;;;;;;;;;;;;;;5026813;28;20065;-77
2022/06/29 06:38:18;;;;;;;21.00;7.15;;;;;;;;;;5026210;28;19944;-77
2022/06/29 06:43:29;;;;;;;16.42;7.25;;;;;;;;;;5024120;28;20130;-72
2022/06/29 06:45:55;;;;;;;;;;;;;;;;;;5025667;28;20104;-72
2022/06/29 06:48:21;;;;;;;18.80;6.10;;;;;;;;;;5041477;28;20409;-72
2022/06/29 06:50:47;;;;;;;14.00;6.35;;;;;;;;;;5025486;28;20084;-68
2022/06/29 06:53:13;;;;;;;15.00;5.53;;;;;;;;;;5024939;28;20103;-77
2022/06/29 06:55:39;;;;;;;14.13;5.03;;;;;;;;;;5027532;28;20148;-78
2022/06/29 06:58:05;;;;;;;18.40;5.68;;;;;;;;;;5029167;28;20131;-80
2022/06/29 07:00:31;;;;;;;;;;;;;;;;;;5027779;28;20431;-75
2022/06/29 07:02:57;;;;;;;12.10;4.85;;;;;;;;;;5027746;28;19921;-77
2022/06/29 07:05:25;;;;;;;11.02;4.88;;;;;;;;;;5028255;28;20052;-77
2022/06/29 07:07:51;;;;;;;11.65;5.20;;;;;;;;;;5025825;28;20057;-77
2022/06/29 07:10:17;;;;;;;;;;;;;;;;;;5029470;28;20045;-76
2022/06/29 07:12:43;;;;;;;11.13;4.80;;;;;;;;;;5029061;28;19974;-82
2022/06/29 07:15:11;;;;;;;16.65;4.55;;;;;;;;;;5026238;28;20045;-78
2022/06/29 07:17:37;;;;;;;10.35;4.45;;;;;;;;;;5026867;28;20369;-79
2022/06/29 07:20:06;;;;;;;13.57;4.65;;;;;;;;;;5026607;28;20086;-78
2022/06/29 07:22:32;;;;;;;13.30;5.07;;;;;;;;;;5028322;28;20046;-79
2022/06/29 07:24:58;;;;;;;;;;;;;;;;;;5031010;28;20057;-81
2022/06/29 07:27:24;;;;;;;9.70;4.50;;;;;;;;;;5027913;28;19940;-78
2022/06/29 07:29:53;;;;;;;11.68;4.25;;;;;;;;;;5027610;28;20119;-76
2022/06/29 07:32:19;;;;;;;9.13;4.20;;;;;;;;;;5027589;28;20057;-84
2022/06/29 07:34:46;;;;;;;12.27;4.75;;;;;;;;;;5027376;28;20121;-80
2022/06/29 07:37:12;;;;;;;10.82;4.40;;;;;;;;;;5027967;28;20061;-83
2022/06/29 07:39:38;;;;;;;;;;;;;;;;;;5025855;28;20350;-81
2022/06/29 07:42:04;;;;;;;13.63;4.15;;;;;;;;;;5027794;28;19998;-77
2022/06/29 07:44:30;;;;;;;10.95;4.20;;;;;;;;;;5027455;28;20065;-81
2022/06/29 07:46:56;;;;;;;8.70;3.95;;;;;;;;;;5026403;28;20461;-78
2022/06/29 07:49:23;;;;;;;12.13;4.55;;;;;;;;;;5026863;28;20056;-79
2022/06/29 07:51:53;;;;;;;10.10;3.90;;;;;;;;;;5027021;28;20461;-77
2022/06/29 07:54:19;;;;;;;11.32;4.40;;;;;;;;;;5027629;28;20053;-77
2022/06/29 07:56:45;;;;;;;;;;;;;;;;;;5027584;28;20064;-74
2022/06/29 07:59:11;;;;;;;11.43;3.80;;;;;;;;;;5027091;28;19925;-82
2022/06/29 08:01:37;;;;;;;9.88;3.58;;;;;;;;;;5026284;28;20081;-74
2022/06/29 08:04:04;;;;;;;12.95;3.70;;;;;;;;;;5027335;28;20053;-76
2022/06/29 08:06:30;;;;;;;16.42;3.97;;;;;;;;;;5027249;28;20406;-76
2022/06/29 08:08:56;;;;;;;;;;;;;;;;;;5027703;28;20132;-78
2022/06/29 08:11:22;;;;;;;9.45;4.07;;;;;;;;;;5026538;28;19924;-76
2022/06/29 08:13:48;;;;;;;9.30;3.40;;;;;;;;;;5026953;28;20198;-77
2022/06/29 08:16:15;;;;;;;;;;;;;;;;;;5027646;28;20089;-79
2022/06/29 08:18:41;;;;;;;9.88;3.65;;;;;;;;;;5026811;28;20289;-73
2022/06/29 08:21:07;;;;;;;8.05;3.60;;;;;;;;;;5026046;28;20506;-74
2022/06/29 08:23:34;;;;;;;;;;;;;;;;;;5027255;28;20519;-76
2022/06/29 08:26:00;;;;;;;11.80;3.70;;;;;;;;;;5025385;28;20494;-80
2022/06/29 08:28:27;;;;;;;9.63;3.80;;;;;;;;;;5026984;28;20072;-75
2022/06/29 08:30:54;;;;;;;8.32;3.72;;;;;;;;;;5025526;28;20140;-76
2022/06/29 08:33:22;;;;;;;14.27;4.18;;;;;;;;;;5026633;28;20117;-75
2022/06/29 08:35:52;;;;;;;12.30;4.03;;;;;;;;;;5025117;28;20045;-76
2022/06/29 08:38:18;;;;;;;11.93;3.60;;;;;;;;;;5027239;28;20394;-75
2022/06/29 08:40:47;;;;;;;;;;;;;;;;;;5026952;28;20129;-74
2022/06/29 08:43:14;;;;;;;10.20;3.60;;;;;;;;;;5024997;28;19937;-72
2022/06/29 08:45:43;;;;;;;11.90;3.88;;;;;;;;;;5026535;28;20076;-72
2022/06/29 08:48:10;;;;;;;11.68;3.90;;;;;;;;;;5026225;28;20465;-72
2022/06/29 08:50:37;;;;;;;11.75;3.63;;;;;;;;;;5026258;28;20111;-74
2022/06/29 08:53:05;;;;;;;10.23;3.70;;;;;;;;;;5023576;28;20256;-79
2022/06/29 08:55:33;;;;;;;9.93;3.63;;;;;;;;;;5021332;28;20049;-74
2022/06/29 08:57:59;;;;;;;9.32;4.10;;;;;;;;;;5019595;28;20084;-74
2022/06/29 09:00:25;;;;;;;;;;;;;;;;;;5025809;28;20045;-78
2022/06/29 09:02:51;;;;;;;10.48;3.72;;;;;;;;;;5023234;28;19994;-78
2022/06/29 09:05:17;;;;;;;;;;;;;;;;;;5025734;28;20069;-76
2022/06/29 09:07:43;;;;;;;9.57;4.13;;;;;;;;;;5024355;28;20388;-74
2022/06/29 09:10:14;;;;;;;11.50;3.13;;;;;;;;;;5020820;28;20144;-72
2022/06/29 09:12:40;;;;;;;8.85;3.92;;;;;;;;;;5023777;28;20088;-75
2022/06/29 09:15:07;;;;;;;12.23;3.95;;;;;;;;;;5027492;28;20045;-78
2022/06/29 09:17:34;;;;;;;15.00;4.22;;;;;;;;;;5027509;28;20386;-74
2022/06/29 09:20:00;;;;;;;10.88;3.80;;;;;;;;;;5024638;28;20176;-76
2022/06/29 09:22:29;;;;;;;9.65;4.13;;;;;;;;;;5026647;28;20136;-77
2022/06/29 09:24:55;;;;;;;;;;;;;;;;;;5026266;28;20108;-81
2022/06/29 09:27:25;;;;;;;10.07;3.53;;;;;;;;;;5020557;28;19997;-76
2022/06/29 09:29:51;;;;;;;10.25;3.55;;;;;;;;;;5025570;28;20485;-69
2022/06/29 09:32:18;;;;;;;12.90;3.85;;;;;;;;;;5026238;28;20124;-75
2022/06/29 09:34:44;;;;;;;10.07;3.60;;;;;;;;;;5026426;28;20107;-78
2022/06/29 09:37:12;;;;;;;9.77;3.53;;;;;;;;;;5024858;28;20049;-73
2022/06/29 09:39:38;;;;;;;8.15;3.45;;;;;;;;;;5025004;28;20523;-73
2022/06/29 09:42:04;;;;;;;;;;;;;;;;;;5026138;28;20045;-77
2022/06/29 09:44:30;;;;;;;9.93;3.40;;;;;;;;;;5026032;28;19929;-70
2022/06/29 09:46:57;;;;;;;8.73;3.58;;;;;;;;;;5024750;28;20457;-74
2022/06/29 09:49:27;;;;;;;9.15;3.65;;;;;;;;;;5025154;28;20539;-82
2022/06/29 09:51:55;;;;;;;8.57;3.53;;;;;;;;;;5025411;28;20048;-77
2022/06/29 09:54:23;;;;;;;8.68;3.20;;;;;;;;;;5025729;28;20053;-78
2022/06/29 09:56:50;;;;;;;11.82;3.88;;;;;;;;;;5026039;28;20109;-74
2022/06/29 10:02:42;;;;;;;11.35;3.40;;;;;;;;;;5024760;28;20270;-72
2022/06/29 10:05:13;;;;;;;12.05;3.60;;;;;;;;;;5024905;28;20065;-76
2022/06/29 10:07:43;;;;;;;7.82;3.20;;;;;;;;;;5028012;28;20385;-74
2022/06/29 10:10:11;;;;;;;12.80;3.47;;;;;;;;;;5027912;28;20114;-72
2022/06/29 10:15:50;;;;;;;8.02;3.00;;;;;;;;;;5027647;28;20128;-76
2022/06/29 10:18:23;;;;;;;8.73;3.25;;;;;;;;;;5026814;28;20366;-80
2022/06/29 10:20:49;;;;;;;9.95;3.50;;;;;;;;;;5026765;28;20481;-74
2022/06/29 10:23:34;;;;;;;13.70;3.30;;;;;;;;;;5024461;28;20071;-78
2022/06/29 10:26:01;;;;;;;10.30;3.63;;;;;;;;;;5027986;28;20038;-73
2022/06/29 10:28:27;;;;;;;9.20;3.60;;;;;;;;;;5028736;28;20060;-70
2022/06/29 10:30:55;;;;;;;9.23;3.45;;;;;;;;;;5027956;28;20421;-75
2022/06/29 10:33:32;;;;;;;7.72;3.47;;;;;;;;;;5028224;28;20064;-71
2022/06/29 10:36:05;;;;;;;9.45;3.03;;;;;;;;;;5017061;28;20050;-74
2022/06/29 10:38:32;;;;;;;10.05;3.63;;;;;;;;;;5008253;28;20125;-78
2022/06/29 10:43:07;;;;;;;8.45;3.47;;;;;;;;;;5042754;28;20145;-73
2022/06/29 10:43:57;;;;;;;10.15;3.42;;;;;;;;;;5028059;28;20153;-77
2022/06/29 10:46:23;;;;;;;8.93;3.70;;;;;;;;;;5028214;28;20045;-73
2022/06/29 10:49:19;;;;;;;9.07;3.45;;;;;;;;;;5028631;28;20446;-74
2022/06/29 10:51:49;;;;;;;9.32;3.35;;;;;;;;;;5018158;28;20544;-74
2022/06/29 10:54:25;;;;;;;8.50;3.42;;;;;;;;;;5027567;28;20041;-72
2022/06/29 10:56:52;;;;;;;9.25;3.47;;;;;;;;;;5018240;28;20129;-79
2022/06/29 10:59:34;;;;;;;8.65;3.38;;;;;;;;;;5028328;28;20049;-73
2022/06/29 11:02:17;;;;;;;10.25;3.15;;;;;;;;;;5027367;28;20033;-78
2022/06/29 11:04:44;;;;;;;9.20;3.53;;;;;;;;;;5028538;28;20058;-74
2022/06/29 11:12:53;;;;;;;8.80;3.28;;;;;;;;;;5024407;28;20114;-70
2022/06/29 11:15:41;;;;;;;10.27;3.28;;;;;;;;;;5006082;28;20129;-71
2022/06/29 11:18:12;;;;;;;8.38;3.30;;;;;;;;;;5023294;28;20060;-73
2022/06/29 11:20:38;;;;;;;8.88;3.10;;;;;;;;;;5028283;28;20387;-76
2022/06/29 11:23:10;;;;;;;10.20;3.00;;;;;;;;;;5027382;28;20183;-72
2022/06/29 11:25:36;;;;;;;10.25;3.40;;;;;;;;;;5027816;28;20186;-74
2022/06/29 11:28:02;;;;;;;8.00;3.30;;;;;;;;;;5026073;28;20187;-71
2022/06/29 11:30:28;;;;;;;8.30;3.28;;;;;;;;;;5027732;28;20064;-77
2022/06/29 11:32:54;;;;;;;8.77;3.10;;;;;;;;;;5025036;28;20111;-75
2022/06/29 11:35:25;;;;;;;10.85;3.28;;;;;;;;;;5027260;28;20116;-80
2022/06/29 11:37:52;;;;;;;11.80;3.30;;;;;;;;;;5027576;28;20049;-72
2022/06/29 11:40:30;;;;;;;11.82;3.05;;;;;;;;;;5023104;28;20053;-75
2022/06/29 11:43:07;;;;;;;9.60;3.03;;;;;;;;;;5025804;28;20104;-73
2022/06/29 11:45:36;;;;;;;7.95;2.75;;;;;;;;;;5025177;28;20065;-78
2022/06/29 11:48:10;;;;;;;8.75;2.83;;;;;;;;;;5019582;28;20531;-73
2022/06/29 11:50:42;;;;;;;8.68;2.95;;;;;;;;;;5023394;28;20472;-74
2022/06/29 11:53:08;;;;;;;8.13;3.15;;;;;;;;;;5026117;28;20038;-75
2022/06/29 11:55:44;;;;;;;7.85;2.92;;;;;;;;;;5027617;28;20059;-75
2022/06/29 11:58:11;;;;;;;8.55;2.72;;;;;;;;;;5024121;28;20049;-78
2022/06/29 12:00:39;;;;;;;8.68;3.17;;;;;;;;;;5023637;28;20077;-71
2022/06/29 12:03:05;;;;;;;8.50;2.80;;;;;;;;;;5026947;28;20095;-72
2022/06/29 12:05:31;;;;;;;7.50;3.00;;;;;;;;;;5024905;28;20109;-76
2022/06/29 12:07:58;;;;;;;9.05;3.00;;;;;;;;;;5023964;28;20045;-72
2022/06/29 12:10:27;;;;;;;11.35;3.40;;;;;;;;;;5040920;28;20327;-73
2022/06/29 12:12:53;;;;;;;14.30;3.47;;;;;;;;;;5025562;28;20049;-77
2022/06/29 12:15:19;;;;;;;9.23;3.15;;;;;;;;;;5026749;28;20128;-78
2022/06/29 12:17:45;;;;;;;13.27;3.70;;;;;;;;;;5029182;28;20151;-80
2022/06/29 12:20:11;;;;;;;9.13;3.35;;;;;;;;;;5022009;28;20055;-74
2022/06/29 12:22:37;;;;;;;19.40;3.60;;;;;;;;;;5026437;28;20045;-72
2022/06/29 12:25:03;;;;;;;7.65;3.22;;;;;;;;;;5025106;28;20116;-76
2022/06/29 12:27:30;;;;;;;8.43;3.15;;;;;;;;;;5025783;28;20486;-72
2022/06/29 12:29:56;;;;;;;9.43;3.60;;;;;;;;;;5026530;28;20486;-74
2022/06/29 12:32:22;;;;;;;13.73;4.00;;;;;;;;;;5024734;28;20053;-73
2022/06/29 12:34:48;;;;;;;12.60;3.80;;;;;;;;;;5028633;28;20200;-69
2022/06/29 12:37:14;;;;;;;13.02;3.83;;;;;;;;;;5025884;28;20096;-72
2022/06/29 12:39:40;;;;;;;11.52;4.25;;;;;;;;;;5026634;28;20081;-76
2022/06/29 12:42:06;;;;;;;10.07;3.75;;;;;;;;;;5025312;28;20403;-73
2022/06/29 12:44:32;;;;;;;9.15;3.83;;;;;;;;;;5024433;28;20124;-77
2022/06/29 12:46:58;;;;;;;9.65;3.90;;;;;;;;;;5023279;28;20446;-73
2022/06/29 12:49:24;;;;;;;11.38;4.38;;;;;;;;;;5022480;28;20378;-72
2022/06/29 12:51:51;;;;;;;19.40;4.65;;;;;;;;;;5023253;28;20037;-73
2022/06/29 12:54:17;;;;;;;11.90;4.32;;;;;;;;;;5025199;28;20057;-71
2022/06/29 12:56:44;;;;;;;10.27;4.40;;;;;;;;;;5021677;28;20049;-73
2022/06/29 12:59:10;;;;;;;10.77;4.68;;;;;;;;;;5021221;28;20837;-76
2022/06/29 13:01:37;;;;;;;12.63;5.10;;;;;;;;;;5022408;28;20134;-79
2022/06/29 13:04:03;;;;;;;14.38;5.55;;;;;;;;;;5024664;28;20166;-79
2022/06/29 13:06:29;;;;;;;10.15;4.97;;;;;;;;;;5025698;28;20486;-71
2022/06/29 13:08:55;;;;;;;12.23;4.90;;;;;;;;;;5010456;28;20046;-73
2022/06/29 13:11:21;;;;;;;10.57;5.15;;;;;;;;;;5037841;28;20048;-71
2022/06/29 13:13:47;;;;;;;11.05;5.18;;;;;;;;;;5026495;28;20128;-76
2022/06/29 13:16:13;;;;;;;10.15;5.20;;;;;;;;;;5026123;28;20158;-69
2022/06/29 13:18:39;;;;;;;11.20;5.30;;;;;;;;;;5034143;28;20144;-75
2022/06/29 13:21:05;;;;;;;11.27;5.18;;;;;;;;;;5029928;28;20048;-73
2022/06/29 13:23:32;;;;;;;9.80;5.40;;;;;;;;;;5025335;28;20049;-73
2022/06/29 13:25:58;;;;;;;10.70;5.40;;;;;;;;;;5026298;28;20049;-72
2022/06/29 13:28:26;;;;;;;14.23;5.70;;;;;;;;;;5025655;28;20121;-71
2022/06/29 13:30:52;;;;;;;12.50;5.93;;;;;;;;;;5025207;28;20385;-72
2022/06/29 13:33:18;;;;;;;13.27;5.57;;;;;;;;;;5020854;28;20050;-71
2022/06/29 13:35:45;;;;;;;10.85;5.65;;;;;;;;;;5023408;28;20110;-78
2022/06/29 13:38:13;;;;;;;11.38;5.90;;;;;;;;;;5028242;28;20061;-74
2022/06/29 13:40:39;;;;;;;13.52;6.28;;;;;;;;;;5029129;28;20470;-72
2022/06/29 13:43:06;;;;;;;12.30;6.47;;;;;;;;;;5024768;28;20208;-73
2022/06/29 13:45:32;;;;;;;11.63;6.78;;;;;;;;;;5021068;28;20112;-74
2022/06/29 13:47:58;;;;;;;11.57;6.80;;;;;;;;;;5021204;28;20057;-75
2022/06/29 13:50:24;;;;;;;12.50;6.15;;;;;;;;;;5022388;28;20080;-72
2022/06/29 13:52:50;;;;;;;10.88;6.35;;;;;;;;;;5023501;28;20046;-72
2022/06/29 13:55:16;;;;;;;12.40;6.85;;;;;;;;;;5018967;28;20057;-71
2022/06/29 13:57:43;;;;;;;12.15;6.53;;;;;;;;;;5021819;28;20042;-72
2022/06/29 14:00:09;;;;;;;12.85;6.45;;;;;;;;;;5021890;28;20144;-78
2022/06/29 14:02:35;;;;;;;14.80;6.30;;;;;;;;;;5019832;28;20097;-70
2022/06/29 14:05:02;;;;;;;13.35;5.85;;;;;;;;;;5028596;28;20132;-75
2022/06/29 14:07:28;;;;;;;11.50;6.53;;;;;;;;;;5043506;28;20144;-78
2022/06/29 14:09:54;;;;;;;13.90;6.50;;;;;;;;;;5028405;28;20127;-70
2022/06/29 14:12:20;;;;;;;11.57;6.63;;;;;;;;;;5029127;28;20056;-87
2022/06/29 14:14:46;;;;;;;13.05;6.50;;;;;;;;;;5022593;28;20057;-73
2022/06/29 14:17:12;;;;;;;10.68;6.18;;;;;;;;;;5022843;28;20085;-72
2022/06/29 14:19:38;;;;;;;12.65;6.85;;;;;;;;;;5028586;28;20189;-88
2022/06/29 14:22:05;;;;;;;11.15;6.28;;;;;;;;;;5008107;28;20041;-77
2022/06/29 14:24:32;;;;;;;10.85;6.15;;;;;;;;;;5019773;28;20446;-72
2022/06/29 14:26:59;;;;;;;12.40;6.57;;;;;;;;;;5029746;28;20083;-78
2022/06/29 14:29:25;;;;;;;12.65;6.40;;;;;;;;;;5027245;28;20049;-77
2022/06/29 14:31:51;;;;;;;12.82;6.28;;;;;;;;;;5027501;28;20125;-74
2022/06/29 14:34:17;;;;;;;16.63;7.13;;;;;;;;;;5027668;28;20073;-75
2022/06/29 14:36:43;;;;;;;13.70;6.63;;;;;;;;;;5027079;28;20049;-76
2022/06/29 14:39:09;;;;;;;12.95;6.20;;;;;;;;;;5028100;28;20442;-70
2022/06/29 14:41:36;;;;;;;11.27;6.20;;;;;;;;;;5028130;28;20430;-74
2022/06/29 14:44:03;;;;;;;14.20;6.60;;;;;;;;;;5025606;28;20064;-67
2022/06/29 14:46:29;;;;;;;10.60;6.22;;;;;;;;;;5026802;28;20050;-73
2022/06/29 14:48:55;;;;;;;11.52;6.25;;;;;;;;;;5026175;28;20562;-85
2022/06/29 14:51:22;;;;;;;11.80;6.40;;;;;;;;;;5022545;28;20058;-74
2022/06/29 14:53:48;;;;;;;11.73;6.10;;;;;;;;;;5026481;28;20311;-83
2022/06/29 14:56:14;;;;;;;12.73;5.93;;;;;;;;;;5023372;28;20041;-80
2022/06/29 14:58:40;;;;;;;12.23;5.82;;;;;;;;;;5007683;28;20107;-85
2022/06/29 15:01:06;;;;;;;11.10;6.15;;;;;;;;;;5022875;28;20057;-74
2022/06/29 15:03:33;;;;;;;12.65;5.60;;;;;;;;;;5023852;28;20037;-77